sensor_id;sensor_type;location;lat;lon;timestamp;pressure;altitude;pressure_sealevel;temperature;humidity
12666;BME280;58531;59.050;17.416;2023-12-07T00:01:32;101934.47;;;-8.63;100.00
12666;BME280;58531;59.050;17.416;2023-12-07T00:04:02;101929.25;;;-8.58;100.00
12666;BME280;58531;59.050;17.416;2023-12-07T00:06:29;101920.44;;;-8.57;100.00
12666;BME280;58531;59.050;17.416;2023-12-07T00:08:56;101922.41;;;-8.49;100.00
12666;BME280;58531;59.050;17.416;2023-12-07T00:11:23;101925.50;;;-8.47;100.00
12666;BME280;58531;59.050;17.416;2023-12-07T00:13:51;101934.19;;;-8.38;100.00
12666;BME280;58531;59.050;17.416;2023-12-07T00:16:17;101927.97;;;-8.37;100.00
12666;BME280;58531;59.050;17.416;2023-12-07T00:18:44;101925.59;;;-8.33;100.00
12666;BME280;58531;59.050;17.416;2023-12-07T00:21:13;101932.59;;;-8.34;100.00
12666;BME280;58531;59.050;17.416;2023-12-07T00:23:40;101932.31;;;-8.32;100.00
12666;BME280;58531;59.050;17.416;2023-12-07T00:26:07;101934.06;;;-8.28;100.00
12666;BME280;58531;59.050;17.416;2023-12-07T00:28:34;101937.16;;;-8.26;100.00
12666;BME280;58531;59.050;17.416;2023-12-07T00:31:00;101934.00;;;-8.23;100.00
12666;BME280;58531;59.050;17.416;2023-12-07T00:33:28;101937.88;;;-8.20;100.00
12666;BME280;58531;59.050;17.416;2023-12-07T00:35:55;101945.84;;;-8.17;100.00
12666;BME280;58531;59.050;17.416;2023-12-07T00:38:23;101943.72;;;-8.15;100.00
12666;BME280;58531;59.050;17.416;2023-12-07T00:40:50;101930.44;;;-8.09;100.00
12666;BME280;58531;59.050;17.416;2023-12-07T00:43:17;101937.09;;;-8.03;100.00
12666;BME280;58531;59.050;17.416;2023-12-07T00:45:44;101935.22;;;-7.97;100.00
12666;BME280;58531;59.050;17.416;2023-12-07T00:48:11;101942.63;;;-7.91;100.00
12666;BME280;58531;59.050;17.416;2023-12-07T00:50:38;101943.38;;;-7.90;100.00
12666;BME280;58531;59.050;17.416;2023-12-07T00:53:05;101936.59;;;-7.86;100.00
12666;BME280;58531;59.050;17.416;2023-12-07T00:55:34;101938.13;;;-7.85;100.00
12666;BME280;58531;59.050;17.416;2023-12-07T00:58:01;101950.53;;;-7.82;100.00
12666;BME280;58531;59.050;17.416;2023-12-07T01:00:28;101953.06;;;-7.77;100.00
12666;BME280;58531;59.050;17.416;2023-12-07T01:02:55;101951.47;;;-7.73;100.00
12666;BME280;58531;59.050;17.416;2023-12-07T01:05:22;101946.78;;;-7.71;100.00
12666;BME280;58531;59.050;17.416;2023-12-07T01:07:49;101948.31;;;-7.70;100.00
12666;BME280;58531;59.050;17.416;2023-12-07T01:10:16;101945.16;;;-7.67;100.00
12666;BME280;58531;59.050;17.416;2023-12-07T01:12:44;101945.34;;;-7.64;100.00
12666;BME280;58531;59.050;17.416;2023-12-07T01:15:11;101936.53;;;-7.63;100.00
12666;BME280;58531;59.050;17.416;2023-12-07T01:17:38;101942.50;;;-7.62;100.00
12666;BME280;58531;59.050;17.416;2023-12-07T01:20:06;101939.34;;;-7.59;100.00
12666;BME280;58531;59.050;17.416;2023-12-07T01:22:37;101935.69;;;-7.58;100.00
12666;BME280;58531;59.050;17.416;2023-12-07T01:25:06;101938.78;;;-7.56;100.00
12666;BME280;58531;59.050;17.416;2023-12-07T01:27:33;101941.31;;;-7.51;100.00
12666;BME280;58531;59.050;17.416;2023-12-07T01:30:01;101946.75;;;-7.53;100.00
12666;BME280;58531;59.050;17.416;2023-12-07T01:32:29;101947.63;;;-7.57;100.00
12666;BME280;58531;59.050;17.416;2023-12-07T01:34:56;101950.19;;;-7.57;100.00
12666;BME280;58531;59.050;17.416;2023-12-07T01:37:22;101953.84;;;-7.58;100.00
12666;BME280;58531;59.050;17.416;2023-12-07T01:39:50;101949.09;;;-7.51;100.00
12666;BME280;58531;59.050;17.416;2023-12-07T01:42:17;101956.88;;;-7.51;100.00
12666;BME280;58531;59.050;17.416;2023-12-07T01:44:43;101946.97;;;-7.49;100.00
12666;BME280;58531;59.050;17.416;2023-12-07T01:47:12;101953.47;;;-7.52;100.00
12666;BME280;58531;59.050;17.416;2023-12-07T01:49:39;101948.84;;;-7.55;100.00
12666;BME280;58531;59.050;17.416;2023-12-07T01:52:08;101947.53;;;-7.52;100.00
12666;BME280;58531;59.050;17.416;2023-12-07T01:54:35;101946.06;;;-7.58;100.00
12666;BME280;58531;59.050;17.416;2023-12-07T01:57:02;101951.25;;;-7.58;100.00
12666;BME280;58531;59.050;17.416;2023-12-07T01:59:30;101939.13;;;-7.63;100.00
12666;BME280;58531;59.050;17.416;2023-12-07T02:01:57;101942.69;;;-7.59;100.00
12666;BME280;58531;59.050;17.416;2023-12-07T02:04:25;101937.31;;;-7.62;100.00
12666;BME280;58531;59.050;17.416;2023-12-07T02:06:54;101939.41;;;-7.64;100.00
12666;BME280;58531;59.050;17.416;2023-12-07T02:09:23;101938.84;;;-7.61;100.00
12666;BME280;58531;59.050;17.416;2023-12-07T02:11:50;101943.53;;;-7.63;100.00
12666;BME280;58531;59.050;17.416;2023-12-07T02:14:17;101942.31;;;-7.66;100.00
12666;BME280;58531;59.050;17.416;2023-12-07T02:16:48;101943.06;;;-7.65;100.00
12666;BME280;58531;59.050;17.416;2023-12-07T02:19:33;101945.09;;;-7.62;100.00
12666;BME280;58531;59.050;17.416;2023-12-07T02:22:11;101937.88;;;-7.65;100.00
12666;BME280;58531;59.050;17.416;2023-12-07T02:24:48;101940.47;;;-7.65;100.00
12666;BME280;58531;59.050;17.416;2023-12-07T02:27:34;101929.59;;;-7.67;100.00
12666;BME280;58531;59.050;17.416;2023-12-07T02:30:02;101934.03;;;-7.68;100.00
12666;BME280;58531;59.050;17.416;2023-12-07T02:32:29;101930.38;;;-7.67;100.00
12666;BME280;58531;59.050;17.416;2023-12-07T02:34:56;101937.56;;;-7.64;100.00
12666;BME280;58531;59.050;17.416;2023-12-07T02:37:27;101932.38;;;-7.64;100.00
12666;BME280;58531;59.050;17.416;2023-12-07T02:39:55;101933.66;;;-7.61;100.00
12666;BME280;58531;59.050;17.416;2023-12-07T02:42:24;101924.03;;;-7.61;100.00
12666;BME280;58531;59.050;17.416;2023-12-07T02:44:54;101922.16;;;-7.55;100.00
12666;BME280;58531;59.050;17.416;2023-12-07T02:47:21;101919.09;;;-7.57;100.00
12666;BME280;58531;59.050;17.416;2023-12-07T02:49:48;101911.56;;;-7.59;100.00
12666;BME280;58531;59.050;17.416;2023-12-07T02:52:15;101907.16;;;-7.58;100.00
12666;BME280;58531;59.050;17.416;2023-12-07T02:54:42;101903.78;;;-7.59;100.00
12666;BME280;58531;59.050;17.416;2023-12-07T02:57:11;101902.47;;;-7.56;100.00
12666;BME280;58531;59.050;17.416;2023-12-07T02:59:40;101907.09;;;-7.53;100.00
12666;BME280;58531;59.050;17.416;2023-12-07T03:02:08;101910.19;;;-7.51;100.00
12666;BME280;58531;59.050;17.416;2023-12-07T03:04:35;101910.66;;;-7.49;100.00
12666;BME280;58531;59.050;17.416;2023-12-07T03:07:02;101915.78;;;-7.44;100.00
12666;BME280;58531;59.050;17.416;2023-12-07T03:09:29;101913.38;;;-7.41;100.00
12666;BME280;58531;59.050;17.416;2023-12-07T03:11:56;101912.63;;;-7.41;100.00
12666;BME280;58531;59.050;17.416;2023-12-07T03:14:23;101907.22;;;-7.45;100.00
12666;BME280;58531;59.050;17.416;2023-12-07T03:16:50;101908.97;;;-7.40;100.00
12666;BME280;58531;59.050;17.416;2023-12-07T03:19:19;101908.47;;;-7.42;100.00
12666;BME280;58531;59.050;17.416;2023-12-07T03:21:45;101908.00;;;-7.44;100.00
12666;BME280;58531;59.050;17.416;2023-12-07T03:24:13;101911.44;;;-7.49;100.00
12666;BME280;58531;59.050;17.416;2023-12-07T03:26:39;101915.44;;;-7.56;100.00
12666;BME280;58531;59.050;17.416;2023-12-07T03:29:07;101917.53;;;-7.58;100.00
12666;BME280;58531;59.050;17.416;2023-12-07T03:31:34;101907.72;;;-7.61;100.00
12666;BME280;58531;59.050;17.416;2023-12-07T03:34:01;101912.13;;;-7.62;100.00
12666;BME280;58531;59.050;17.416;2023-12-07T03:36:30;101901.50;;;-7.60;100.00
12666;BME280;58531;59.050;17.416;2023-12-07T03:38:57;101905.63;;;-7.59;100.00
12666;BME280;58531;59.050;17.416;2023-12-07T03:41:24;101905.63;;;-7.59;100.00
12666;BME280;58531;59.050;17.416;2023-12-07T03:43:51;101911.44;;;-7.67;100.00
12666;BME280;58531;59.050;17.416;2023-12-07T03:46:17;101914.03;;;-7.67;100.00
12666;BME280;58531;59.050;17.416;2023-12-07T03:48:45;101909.41;;;-7.70;100.00
12666;BME280;58531;59.050;17.416;2023-12-07T03:51:13;101907.25;;;-7.63;100.00
12666;BME280;58531;59.050;17.416;2023-12-07T03:53:43;101914.03;;;-7.67;100.00
12666;BME280;58531;59.050;17.416;2023-12-07T03:56:10;101907.81;;;-7.66;100.00
12666;BME280;58531;59.050;17.416;2023-12-07T03:58:37;101913.41;;;-7.59;100.00
12666;BME280;58531;59.050;17.416;2023-12-07T04:01:05;101918.94;;;-7.47;100.00
12666;BME280;58531;59.050;17.416;2023-12-07T04:03:32;101918.00;;;-7.38;100.00
12666;BME280;58531;59.050;17.416;2023-12-07T04:05:59;101921.84;;;-7.35;100.00
12666;BME280;58531;59.050;17.416;2023-12-07T04:08:26;101918.03;;;-7.24;100.00
12666;BME280;58531;59.050;17.416;2023-12-07T04:10:54;101931.16;;;-7.16;100.00
12666;BME280;58531;59.050;17.416;2023-12-07T04:13:21;101924.53;;;-7.08;100.00
12666;BME280;58531;59.050;17.416;2023-12-07T04:15:48;101916.66;;;-7.03;100.00
12666;BME280;58531;59.050;17.416;2023-12-07T04:18:15;101926.38;;;-6.95;100.00
12666;BME280;58531;59.050;17.416;2023-12-07T04:20:42;101925.25;;;-6.90;100.00
12666;BME280;58531;59.050;17.416;2023-12-07T04:23:08;101917.91;;;-6.88;100.00
12666;BME280;58531;59.050;17.416;2023-12-07T04:25:35;101916.00;;;-6.82;100.00
12666;BME280;58531;59.050;17.416;2023-12-07T04:28:04;101919.00;;;-6.75;100.00
12666;BME280;58531;59.050;17.416;2023-12-07T04:30:31;101915.25;;;-6.69;100.00
12666;BME280;58531;59.050;17.416;2023-12-07T04:32:58;101911.03;;;-6.65;100.00
12666;BME280;58531;59.050;17.416;2023-12-07T04:35:25;101906.75;;;-6.61;100.00
12666;BME280;58531;59.050;17.416;2023-12-07T04:37:52;101909.56;;;-6.58;100.00
12666;BME280;58531;59.050;17.416;2023-12-07T04:40:19;101908.69;;;-6.53;100.00
12666;BME280;58531;59.050;17.416;2023-12-07T04:42:46;101907.53;;;-6.47;100.00
12666;BME280;58531;59.050;17.416;2023-12-07T04:45:15;101915.44;;;-6.39;100.00
12666;BME280;58531;59.050;17.416;2023-12-07T04:47:41;101916.97;;;-6.38;100.00
12666;BME280;58531;59.050;17.416;2023-12-07T04:50:09;101913.00;;;-6.35;100.00
12666;BME280;58531;59.050;17.416;2023-12-07T04:52:36;101921.00;;;-6.32;100.00
12666;BME280;58531;59.050;17.416;2023-12-07T04:55:04;101921.94;;;-6.28;100.00
12666;BME280;58531;59.050;17.416;2023-12-07T04:57:31;101916.38;;;-6.21;100.00
12666;BME280;58531;59.050;17.416;2023-12-07T04:59:58;101930.44;;;-6.22;100.00
12666;BME280;58531;59.050;17.416;2023-12-07T05:02:27;101924.66;;;-6.19;100.00
12666;BME280;58531;59.050;17.416;2023-12-07T05:04:54;101926.94;;;-6.18;100.00
12666;BME280;58531;59.050;17.416;2023-12-07T05:07:21;101938.31;;;-6.14;100.00
12666;BME280;58531;59.050;17.416;2023-12-07T05:09:49;101931.94;;;-6.08;100.00
12666;BME280;58531;59.050;17.416;2023-12-07T05:12:16;101923.75;;;-6.01;100.00
12666;BME280;58531;59.050;17.416;2023-12-07T05:14:43;101922.09;;;-5.97;100.00
12666;BME280;58531;59.050;17.416;2023-12-07T05:17:10;101921.81;;;-5.96;100.00
12666;BME280;58531;59.050;17.416;2023-12-07T05:19:39;101921.50;;;-5.94;100.00
12666;BME280;58531;59.050;17.416;2023-12-07T05:22:05;101920.16;;;-5.92;100.00
12666;BME280;58531;59.050;17.416;2023-12-07T05:24:32;101914.19;;;-5.92;100.00
12666;BME280;58531;59.050;17.416;2023-12-07T05:27:00;101910.84;;;-5.93;100.00
12666;BME280;58531;59.050;17.416;2023-12-07T05:29:29;101920.66;;;-5.90;100.00
12666;BME280;58531;59.050;17.416;2023-12-07T05:31:56;101918.22;;;-5.86;100.00
12666;BME280;58531;59.050;17.416;2023-12-07T05:34:23;101917.31;;;-5.82;100.00
12666;BME280;58531;59.050;17.416;2023-12-07T05:36:51;101922.25;;;-5.80;100.00
12666;BME280;58531;59.050;17.416;2023-12-07T05:39:18;101920.13;;;-5.78;100.00
12666;BME280;58531;59.050;17.416;2023-12-07T05:41:45;101913.53;;;-5.76;100.00
12666;BME280;58531;59.050;17.416;2023-12-07T05:44:13;101918.72;;;-5.76;100.00
12666;BME280;58531;59.050;17.416;2023-12-07T05:46:40;101918.72;;;-5.76;100.00
12666;BME280;58531;59.050;17.416;2023-12-07T05:49:09;101917.81;;;-5.80;100.00
12666;BME280;58531;59.050;17.416;2023-12-07T05:51:36;101910.78;;;-5.79;100.00
12666;BME280;58531;59.050;17.416;2023-12-07T05:54:05;101903.91;;;-5.76;100.00
12666;BME280;58531;59.050;17.416;2023-12-07T05:56:32;101903.31;;;-5.73;100.00
12666;BME280;58531;59.050;17.416;2023-12-07T05:58:59;101904.53;;;-5.70;100.00
12666;BME280;58531;59.050;17.416;2023-12-07T06:01:26;101902.53;;;-5.73;100.00
12666;BME280;58531;59.050;17.416;2023-12-07T06:03:53;101900.41;;;-5.71;100.00
12666;BME280;58531;59.050;17.416;2023-12-07T06:06:21;101906.56;;;-5.67;100.00
12666;BME280;58531;59.050;17.416;2023-12-07T06:08:48;101902.16;;;-5.67;100.00
12666;BME280;58531;59.050;17.416;2023-12-07T06:11:17;101906.56;;;-5.67;100.00
12666;BME280;58531;59.050;17.416;2023-12-07T06:13:44;101902.91;;;-5.66;100.00
12666;BME280;58531;59.050;17.416;2023-12-07T06:16:14;101912.13;;;-5.60;100.00
12666;BME280;58531;59.050;17.416;2023-12-07T06:18:43;101902.31;;;-5.63;100.00
12666;BME280;58531;59.050;17.416;2023-12-07T06:21:09;101896.50;;;-5.60;100.00
12666;BME280;58531;59.050;17.416;2023-12-07T06:23:38;101896.41;;;-5.55;100.00
12666;BME280;58531;59.050;17.416;2023-12-07T06:26:05;101900.53;;;-5.54;100.00
12666;BME280;58531;59.050;17.416;2023-12-07T06:28:34;101901.13;;;-5.57;100.00
12666;BME280;58531;59.050;17.416;2023-12-07T06:31:05;101898.22;;;-5.56;100.00
12666;BME280;58531;59.050;17.416;2023-12-07T06:33:32;101909.09;;;-5.54;100.00
12666;BME280;58531;59.050;17.416;2023-12-07T06:36:00;101921.72;;;-5.47;100.00
12666;BME280;58531;59.050;17.416;2023-12-07T06:38:28;101915.13;;;-5.45;100.00
12666;BME280;58531;59.050;17.416;2023-12-07T06:40:55;101911.78;;;-5.45;100.00
12666;BME280;58531;59.050;17.416;2023-12-07T06:43:22;101917.47;;;-5.43;100.00
12666;BME280;58531;59.050;17.416;2023-12-07T06:45:51;101913.78;;;-5.42;100.00
12666;BME280;58531;59.050;17.416;2023-12-07T06:48:18;101910.28;;;-5.38;100.00
12666;BME280;58531;59.050;17.416;2023-12-07T06:50:45;101920.41;;;-5.36;100.00
12666;BME280;58531;59.050;17.416;2023-12-07T06:53:13;101924.53;;;-5.35;100.00
12666;BME280;58531;59.050;17.416;2023-12-07T06:55:41;101912.19;;;-5.30;100.00
12666;BME280;58531;59.050;17.416;2023-12-07T06:58:09;101921.22;;;-5.27;100.00
12666;BME280;58531;59.050;17.416;2023-12-07T07:00:36;101917.53;;;-5.26;100.00
12666;BME280;58531;59.050;17.416;2023-12-07T07:03:04;101914.06;;;-5.22;100.00
12666;BME280;58531;59.050;17.416;2023-12-07T07:05:32;101907.47;;;-5.19;100.00
12666;BME280;58531;59.050;17.416;2023-12-07T07:07:59;101904.13;;;-5.20;100.00
12666;BME280;58531;59.050;17.416;2023-12-07T07:10:26;101903.66;;;-5.22;100.00
12666;BME280;58531;59.050;17.416;2023-12-07T07:12:53;101894.94;;;-5.17;100.00
12666;BME280;58531;59.050;17.416;2023-12-07T07:15:20;101902.16;;;-5.14;100.00
12666;BME280;58531;59.050;17.416;2023-12-07T07:17:48;101905.56;;;-5.05;100.00
12666;BME280;58531;59.050;17.416;2023-12-07T07:20:17;101903.91;;;-5.01;100.00
12666;BME280;58531;59.050;17.416;2023-12-07T07:22:44;101916.63;;;-5.00;100.00
12666;BME280;58531;59.050;17.416;2023-12-07T07:25:11;101917.09;;;-4.98;100.00
12666;BME280;58531;59.050;17.416;2023-12-07T07:27:37;101919.09;;;-4.95;100.00
12666;BME280;58531;59.050;17.416;2023-12-07T07:30:06;101913.91;;;-4.95;100.00
12666;BME280;58531;59.050;17.416;2023-12-07T07:32:33;101913.47;;;-4.88;100.00
12666;BME280;58531;59.050;17.416;2023-12-07T07:35:01;101919.16;;;-4.86;100.00
12666;BME280;58531;59.050;17.416;2023-12-07T07:37:30;101915.19;;;-4.84;100.00
12666;BME280;58531;59.050;17.416;2023-12-07T07:39:57;101923.31;;;-4.85;100.00
12666;BME280;58531;59.050;17.416;2023-12-07T07:42:25;101917.03;;;-4.84;100.00
12666;BME280;58531;59.050;17.416;2023-12-07T07:44:52;101917.66;;;-4.79;100.00
12666;BME280;58531;59.050;17.416;2023-12-07T07:47:19;101920.41;;;-4.75;100.00
12666;BME280;58531;59.050;17.416;2023-12-07T07:49:46;101913.38;;;-4.75;100.00
12666;BME280;58531;59.050;17.416;2023-12-07T07:52:12;101916.47;;;-4.73;100.00
12666;BME280;58531;59.050;17.416;2023-12-07T07:54:41;101913.06;;;-4.73;100.00
12666;BME280;58531;59.050;17.416;2023-12-07T07:57:08;101909.84;;;-4.70;100.00
12666;BME280;58531;59.050;17.416;2023-12-07T07:59:35;101908.78;;;-4.69;100.00
12666;BME280;58531;59.050;17.416;2023-12-07T08:02:02;101911.25;;;-4.65;100.00
12666;BME280;58531;59.050;17.416;2023-12-07T08:04:29;101915.41;;;-4.64;100.00
12666;BME280;58531;59.050;17.416;2023-12-07T08:06:58;101923.09;;;-4.59;100.00
12666;BME280;58531;59.050;17.416;2023-12-07T08:09:25;101910.41;;;-4.52;100.00
12666;BME280;58531;59.050;17.416;2023-12-07T08:11:53;101910.84;;;-4.50;100.00
12666;BME280;58531;59.050;17.416;2023-12-07T08:14:20;101911.31;;;-4.48;100.00
12666;BME280;58531;59.050;17.416;2023-12-07T08:16:47;101914.88;;;-4.44;100.00
12666;BME280;58531;59.050;17.416;2023-12-07T08:19:14;101912.72;;;-4.42;100.00
12666;BME280;58531;59.050;17.416;2023-12-07T08:21:41;101912.13;;;-4.39;100.00
12666;BME280;58531;59.050;17.416;2023-12-07T08:24:07;101909.38;;;-4.34;100.00
12666;BME280;58531;59.050;17.416;2023-12-07T08:26:34;101921.78;;;-4.31;100.00
12666;BME280;58531;59.050;17.416;2023-12-07T08:29:03;101920.41;;;-4.28;100.00
12666;BME280;58531;59.050;17.416;2023-12-07T08:31:30;101925.03;;;-4.25;100.00
12666;BME280;58531;59.050;17.416;2023-12-07T08:33:57;101924.09;;;-4.21;100.00
12666;BME280;58531;59.050;17.416;2023-12-07T08:36:24;101930.25;;;-4.17;100.00
12666;BME280;58531;59.050;17.416;2023-12-07T08:38:51;101931.50;;;-4.14;100.00
12666;BME280;58531;59.050;17.416;2023-12-07T08:41:18;101931.19;;;-4.13;100.00
12666;BME280;58531;59.050;17.416;2023-12-07T08:43:45;101926.91;;;-4.09;100.00
12666;BME280;58531;59.050;17.416;2023-12-07T08:46:13;101934.56;;;-4.04;100.00
12666;BME280;58531;59.050;17.416;2023-12-07T08:48:41;101933.97;;;-4.01;100.00
12666;BME280;58531;59.050;17.416;2023-12-07T08:51:08;101934.13;;;-3.97;100.00
12666;BME280;58531;59.050;17.416;2023-12-07T08:53:35;101941.66;;;-3.96;100.00
12666;BME280;58531;59.050;17.416;2023-12-07T08:56:03;101936.91;;;-3.94;100.00
12666;BME280;58531;59.050;17.416;2023-12-07T08:58:30;101925.25;;;-3.88;100.00
12666;BME280;58531;59.050;17.416;2023-12-07T09:00:57;101919.88;;;-3.83;100.00
12666;BME280;58531;59.050;17.416;2023-12-07T09:03:25;101926.44;;;-3.77;100.00
12666;BME280;58531;59.050;17.416;2023-12-07T09:05:57;101926.31;;;-3.72;100.00
12666;BME280;58531;59.050;17.416;2023-12-07T09:08:24;101925.88;;;-3.65;100.00
12666;BME280;58531;59.050;17.416;2023-12-07T09:10:51;101922.31;;;-3.61;100.00
12666;BME280;58531;59.050;17.416;2023-12-07T09:13:18;101924.28;;;-3.50;100.00
12666;BME280;58531;59.050;17.416;2023-12-07T09:15:45;101933.69;;;-3.40;100.00
12666;BME280;58531;59.050;17.416;2023-12-07T09:18:12;101926.91;;;-3.41;100.00
12666;BME280;58531;59.050;17.416;2023-12-07T09:20:40;101927.84;;;-3.37;100.00
12666;BME280;58531;59.050;17.416;2023-12-07T09:23:11;101917.84;;;-3.35;100.00
12666;BME280;58531;59.050;17.416;2023-12-07T09:25:40;101925.53;;;-3.39;100.00
12666;BME280;58531;59.050;17.416;2023-12-07T09:28:07;101922.91;;;-3.39;100.00
12666;BME280;58531;59.050;17.416;2023-12-07T09:30:42;101924.16;;;-3.36;100.00
12666;BME280;58531;59.050;17.416;2023-12-07T09:33:09;101924.28;;;-3.33;100.00
12666;BME280;58531;59.050;17.416;2023-12-07T09:35:36;101922.47;;;-3.32;100.00
12666;BME280;58531;59.050;17.416;2023-12-07T09:38:06;101920.72;;;-3.28;100.00
12666;BME280;58531;59.050;17.416;2023-12-07T09:40:33;101917.50;;;-3.25;100.00
12666;BME280;58531;59.050;17.416;2023-12-07T09:43:00;101916.44;;;-3.24;100.00
12666;BME280;58531;59.050;17.416;2023-12-07T09:45:27;101915.34;;;-3.23;100.00
12666;BME280;58531;59.050;17.416;2023-12-07T09:47:55;101908.28;;;-3.23;100.00
12666;BME280;58531;59.050;17.416;2023-12-07T09:50:24;101905.34;;;-3.21;100.00
12666;BME280;58531;59.050;17.416;2023-12-07T09:52:52;101911.50;;;-3.17;100.00
12666;BME280;58531;59.050;17.416;2023-12-07T09:55:23;101912.88;;;-3.11;100.00
12666;BME280;58531;59.050;17.416;2023-12-07T09:57:51;101917.94;;;-3.06;100.00
12666;BME280;58531;59.050;17.416;2023-12-07T10:00:20;101917.19;;;-3.07;100.00
12666;BME280;58531;59.050;17.416;2023-12-07T10:02:47;101918.06;;;-3.03;100.00
12666;BME280;58531;59.050;17.416;2023-12-07T10:05:15;101906.06;;;-3.04;100.00
12666;BME280;58531;59.050;17.416;2023-12-07T10:07:43;101916.22;;;-3.02;100.00
12666;BME280;58531;59.050;17.416;2023-12-07T10:10:12;101903.28;;;-2.99;100.00
12666;BME280;58531;59.050;17.416;2023-12-07T10:12:46;101893.75;;;-2.95;100.00
12666;BME280;58531;59.050;17.416;2023-12-07T10:15:14;101890.06;;;-2.94;100.00
12666;BME280;58531;59.050;17.416;2023-12-07T10:17:47;101890.53;;;-2.92;100.00
12666;BME280;58531;59.050;17.416;2023-12-07T10:20:16;101885.00;;;-2.90;100.00
12666;BME280;58531;59.050;17.416;2023-12-07T10:22:43;101888.34;;;-2.81;100.00
12666;BME280;58531;59.050;17.416;2023-12-07T10:25:11;101870.47;;;-2.79;100.00
12666;BME280;58531;59.050;17.416;2023-12-07T10:27:41;101877.06;;;-2.73;100.00
12666;BME280;58531;59.050;17.416;2023-12-07T10:30:12;101880.72;;;-2.66;100.00
12666;BME280;58531;59.050;17.416;2023-12-07T10:32:39;101871.47;;;-2.63;100.00
12666;BME280;58531;59.050;17.416;2023-12-07T10:35:08;101868.13;;;-2.64;100.00
12666;BME280;58531;59.050;17.416;2023-12-07T10:37:35;101868.22;;;-2.60;100.00
12666;BME280;58531;59.050;17.416;2023-12-07T10:40:04;101868.69;;;-2.58;100.00
12666;BME280;58531;59.050;17.416;2023-12-07T10:42:33;101866.22;;;-2.55;100.00
12666;BME280;58531;59.050;17.416;2023-12-07T10:45:06;101860.50;;;-2.48;100.00
12666;BME280;58531;59.050;17.416;2023-12-07T10:47:37;101861.69;;;-2.46;100.00
12666;BME280;58531;59.050;17.416;2023-12-07T10:50:06;101862.47;;;-2.45;100.00
12666;BME280;58531;59.050;17.416;2023-12-07T10:52:39;101854.75;;;-2.42;100.00
12666;BME280;58531;59.050;17.416;2023-12-07T10:55:14;101861.19;;;-2.39;100.00
12666;BME280;58531;59.050;17.416;2023-12-07T10:57:42;101848.13;;;-2.39;100.00
12666;BME280;58531;59.050;17.416;2023-12-07T11:00:12;101851.19;;;-2.37;100.00
12666;BME280;58531;59.050;17.416;2023-12-07T11:02:42;101848.56;;;-2.37;100.00
12666;BME280;58531;59.050;17.416;2023-12-07T11:05:11;101851.63;;;-2.35;100.00
12666;BME280;58531;59.050;17.416;2023-12-07T11:07:48;101846.84;;;-2.33;100.00
12666;BME280;58531;59.050;17.416;2023-12-07T11:10:21;101849.47;;;-2.33;100.00
12666;BME280;58531;59.050;17.416;2023-12-07T11:13:00;101842.53;;;-2.30;100.00
12666;BME280;58531;59.050;17.416;2023-12-07T11:15:28;101850.03;;;-2.28;100.00
12666;BME280;58531;59.050;17.416;2023-12-07T11:17:56;101842.66;;;-2.26;100.00
12666;BME280;58531;59.050;17.416;2023-12-07T11:20:32;101848.00;;;-2.23;100.00
12666;BME280;58531;59.050;17.416;2023-12-07T11:22:59;101849.53;;;-2.22;100.00
12666;BME280;58531;59.050;17.416;2023-12-07T11:25:26;101847.34;;;-2.20;100.00
12666;BME280;58531;59.050;17.416;2023-12-07T11:28:00;101844.28;;;-2.22;100.00
12666;BME280;58531;59.050;17.416;2023-12-07T11:30:28;101837.66;;;-2.19;100.00
12666;BME280;58531;59.050;17.416;2023-12-07T11:32:56;101846.28;;;-2.19;100.00
12666;BME280;58531;59.050;17.416;2023-12-07T11:35:23;101836.69;;;-2.15;100.00
12666;BME280;58531;59.050;17.416;2023-12-07T11:38:07;101837.16;;;-2.13;100.00
12666;BME280;58531;59.050;17.416;2023-12-07T11:40:38;101838.69;;;-2.12;100.00
12666;BME280;58531;59.050;17.416;2023-12-07T11:43:06;101827.56;;;-2.09;100.00
12666;BME280;58531;59.050;17.416;2023-12-07T11:45:40;101830.00;;;-2.04;100.00
12666;BME280;58531;59.050;17.416;2023-12-07T11:48:11;101827.19;;;-1.99;100.00
12666;BME280;58531;59.050;17.416;2023-12-07T11:50:57;101837.78;;;-1.95;100.00
12666;BME280;58531;59.050;17.416;2023-12-07T11:53:25;101831.16;;;-1.93;100.00
12666;BME280;58531;59.050;17.416;2023-12-07T11:55:54;101827.56;;;-1.88;100.00
12666;BME280;58531;59.050;17.416;2023-12-07T11:58:21;101833.69;;;-1.84;100.00
12666;BME280;58531;59.050;17.416;2023-12-07T12:00:48;101835.34;;;-1.80;100.00
12666;BME280;58531;59.050;17.416;2023-12-07T12:03:16;101833.13;;;-1.78;100.00
12666;BME280;58531;59.050;17.416;2023-12-07T12:05:43;101840.25;;;-1.78;100.00
12666;BME280;58531;59.050;17.416;2023-12-07T12:08:11;101835.47;;;-1.76;100.00
12666;BME280;58531;59.050;17.416;2023-12-07T12:10:38;101832.84;;;-1.76;100.00
12666;BME280;58531;59.050;17.416;2023-12-07T12:13:05;101830.31;;;-1.73;100.00
12666;BME280;58531;59.050;17.416;2023-12-07T12:15:32;101827.41;;;-1.71;100.00
12666;BME280;58531;59.050;17.416;2023-12-07T12:18:00;101827.50;;;-1.68;100.00
12666;BME280;58531;59.050;17.416;2023-12-07T12:20:29;101823.81;;;-1.67;100.00
12666;BME280;58531;59.050;17.416;2023-12-07T12:22:57;101813.34;;;-1.67;100.00
12666;BME280;58531;59.050;17.416;2023-12-07T12:25:25;101817.38;;;-1.69;100.00
12666;BME280;58531;59.050;17.416;2023-12-07T12:27:54;101820.75;;;-1.69;100.00
12666;BME280;58531;59.050;17.416;2023-12-07T12:30:22;101812.44;;;-1.71;100.00
12666;BME280;58531;59.050;17.416;2023-12-07T12:32:50;101819.84;;;-1.73;100.00
12666;BME280;58531;59.050;17.416;2023-12-07T12:35:17;101815.72;;;-1.74;100.00